createdAt,value
2018-05-07T00:01:41.948Z,18.81
2018-05-07T00:04:10.209Z,18.83
2018-05-07T00:06:39.291Z,18.48
2018-05-07T00:09:07.603Z,18.38
2018-05-07T00:11:35.908Z,18.33
2018-05-07T00:14:04.252Z,18.09
2018-05-07T00:16:32.421Z,17.79
2018-05-07T00:19:00.743Z,17.50
2018-05-07T00:21:29.813Z,17.85
2018-05-07T00:23:58.107Z,17.60
2018-05-07T00:26:27.140Z,17.43
2018-05-07T00:28:55.417Z,17.64
2018-05-07T00:31:23.936Z,17.54
2018-05-07T00:33:52.985Z,17.57
2018-05-07T00:36:21.293Z,17.79
2018-05-07T00:38:49.564Z,17.64
2018-05-07T00:41:17.840Z,17.60
2018-05-07T00:43:46.170Z,17.75
2018-05-07T00:46:14.422Z,17.85
2018-05-07T00:48:43.465Z,17.92
2018-05-07T00:51:11.785Z,17.97
2018-05-07T00:53:40.823Z,18.05
2018-05-07T00:56:09.171Z,18.26
2018-05-07T00:58:37.451Z,18.36
2018-05-07T01:01:05.741Z,18.63
2018-05-07T01:03:34.025Z,18.41
2018-05-07T01:06:02.322Z,18.37
2018-05-07T01:08:30.598Z,18.47
2018-05-07T01:10:58.983Z,18.43
2018-05-07T01:13:27.645Z,18.58
2018-05-07T01:15:55.925Z,18.42
2018-05-07T01:18:24.190Z,18.39
2018-05-07T01:20:52.520Z,18.43
2018-05-07T01:23:21.551Z,18.45
2018-05-07T01:25:49.825Z,18.44
2018-05-07T01:28:18.128Z,18.51
2018-05-07T01:30:46.446Z,18.43
2018-05-07T01:33:15.485Z,18.66
2018-05-07T01:35:44.528Z,18.63
2018-05-07T01:38:13.598Z,18.57
2018-05-07T01:40:41.856Z,18.57
2018-05-07T01:43:10.148Z,18.52
2018-05-07T01:45:38.435Z,18.45
2018-05-07T01:48:07.495Z,18.47
2018-05-07T01:50:36.527Z,18.53
2018-05-07T01:53:05.581Z,18.55
2018-05-07T01:55:33.846Z,18.58
2018-05-07T01:58:02.159Z,18.50
2018-05-07T02:00:30.867Z,18.59
2018-05-07T02:02:59.149Z,18.43
2018-05-07T02:05:27.508Z,18.43
2018-05-07T02:07:56.541Z,18.29
2018-05-07T02:10:24.821Z,18.19
2018-05-07T02:12:53.102Z,18.21
2018-05-07T02:15:21.387Z,18.23
2018-05-07T02:17:49.652Z,18.20
2018-05-07T02:20:17.961Z,18.07
2018-05-07T02:22:46.442Z,18.08
2018-05-07T02:25:14.731Z,18.05
2018-05-07T02:27:43.808Z,17.99
2018-05-07T02:30:12.112Z,17.97
2018-05-07T02:32:41.162Z,17.93
2018-05-07T02:35:09.489Z,17.98
2018-05-07T02:37:37.770Z,17.94
2018-05-07T02:40:06.045Z,18.00
2018-05-07T02:42:34.348Z,17.97
2018-05-07T02:45:02.693Z,17.96
2018-05-07T02:47:30.969Z,18.00
2018-05-07T02:49:59.241Z,17.96
2018-05-07T02:52:27.525Z,18.00
2018-05-07T02:54:55.830Z,18.10
2018-05-07T02:57:24.116Z,18.03
2018-05-07T02:59:52.374Z,17.96
2018-05-07T03:02:20.649Z,17.87
2018-05-07T03:04:48.907Z,17.95
2018-05-07T03:07:17.385Z,17.87
2018-05-07T03:09:45.667Z,17.86
2018-05-07T03:12:13.991Z,17.87
2018-05-07T03:14:43.026Z,17.76
2018-05-07T03:17:11.313Z,17.75
2018-05-07T03:19:39.585Z,17.67
2018-05-07T03:22:07.892Z,17.69
2018-05-07T03:24:36.215Z,17.71
2018-05-07T03:27:04.538Z,17.69
2018-05-07T03:29:32.962Z,17.73
2018-05-07T03:32:01.246Z,17.71
2018-05-07T03:34:29.513Z,17.75
2018-05-07T03:36:58.546Z,17.75
2018-05-07T03:39:26.822Z,17.68
2018-05-07T03:41:55.100Z,17.66
2018-05-07T03:44:23.359Z,17.63
2018-05-07T03:46:51.665Z,17.62
2018-05-07T03:49:19.938Z,17.53
2018-05-07T03:51:48.223Z,17.48
2018-05-07T03:54:16.482Z,17.47
2018-05-07T03:56:44.775Z,17.47
2018-05-07T03:59:13.033Z,17.41
2018-05-07T04:01:41.673Z,17.44
2018-05-07T04:04:09.939Z,17.36
2018-05-07T04:06:39.011Z,17.32
2018-05-07T04:09:07.269Z,17.35
2018-05-07T04:11:35.558Z,17.39
2018-05-07T04:14:03.974Z,17.32
2018-05-07T04:16:49.958Z,17.32
2018-05-07T04:19:36.798Z,17.28
2018-05-07T04:22:22.805Z,17.23
2018-05-07T04:24:51.075Z,17.29
2018-05-07T04:27:19.343Z,17.23
2018-05-07T04:29:47.616Z,17.16
2018-05-07T04:32:15.877Z,17.17
2018-05-07T04:34:44.170Z,17.03
2018-05-07T04:37:12.448Z,16.88
2018-05-07T04:39:40.704Z,16.71
2018-05-07T04:42:08.968Z,16.53
2018-05-07T04:47:45.668Z,16.34
2018-05-07T04:50:14.064Z,16.36
2018-05-07T04:52:42.339Z,16.62
2018-05-07T04:55:10.757Z,16.63
2018-05-07T04:57:39.925Z,16.74
2018-05-07T05:00:08.309Z,16.76
2018-05-07T05:02:36.702Z,16.80
2018-05-07T05:05:05.015Z,16.81
2018-05-07T05:07:33.510Z,16.75
2018-05-07T05:10:01.837Z,16.79
2018-05-07T05:12:30.326Z,16.67
2018-05-07T05:14:58.623Z,16.53
2018-05-07T05:17:27.153Z,16.51
2018-05-07T05:19:59.657Z,16.46
2018-05-07T05:22:28.023Z,16.86
2018-05-07T05:24:56.472Z,16.96
2018-05-07T05:27:24.908Z,16.98
2018-05-07T05:29:53.182Z,17.04
2018-05-07T05:32:21.449Z,16.92
2018-05-07T05:34:55.275Z,16.95
2018-05-07T05:37:24.415Z,17.02
2018-05-07T05:39:52.665Z,17.14
2018-05-07T05:42:21.004Z,17.50
2018-05-07T05:44:50.443Z,19.37
2018-05-07T05:47:18.716Z,21.06
2018-05-07T05:49:47.000Z,23.08
2018-05-07T05:52:15.248Z,23.54
2018-05-07T05:54:43.529Z,23.03
2018-05-07T05:57:11.832Z,22.98
2018-05-07T05:59:40.099Z,22.65
2018-05-07T06:02:08.395Z,23.51
2018-05-07T06:04:36.664Z,22.94
2018-05-07T06:07:22.203Z,23.18
2018-05-07T06:09:51.550Z,23.84
2018-05-07T06:12:34.751Z,23.52
2018-05-07T06:21:31.794Z,23.70
2018-05-07T06:24:00.841Z,23.47
2018-05-07T06:26:29.214Z,23.86
2018-05-07T06:28:57.473Z,23.86
2018-05-07T06:31:25.795Z,22.96
2018-05-07T06:33:54.307Z,23.26
2018-05-07T06:36:23.412Z,23.40
2018-05-07T06:38:51.736Z,23.41
2018-05-07T06:41:20.082Z,23.38
2018-05-07T06:44:06.451Z,23.11
2018-05-07T06:46:35.506Z,23.30
2018-05-07T06:49:03.794Z,23.56
2018-05-07T06:51:32.044Z,23.63
2018-05-07T06:54:00.460Z,23.99
2018-05-07T06:56:28.707Z,22.96
2018-05-07T06:58:57.441Z,22.71
2018-05-07T07:01:26.478Z,22.92
2018-05-07T07:03:54.745Z,22.85
2018-05-07T07:06:23.188Z,22.81
2018-05-07T07:08:52.260Z,22.76
2018-05-07T07:11:20.571Z,22.89
2018-05-07T07:13:48.833Z,21.02
2018-05-07T07:16:17.118Z,21.19
2018-05-07T07:18:45.453Z,20.54
2018-05-07T07:21:13.728Z,20.36
2018-05-07T07:23:42.032Z,20.25
2018-05-07T07:26:11.121Z,20.08
2018-05-07T07:28:40.171Z,20.22
2018-05-07T07:31:08.450Z,20.10
2018-05-07T07:33:36.727Z,20.14
2018-05-07T07:36:05.104Z,19.94
2018-05-07T07:38:33.373Z,20.15
2018-05-07T07:41:01.686Z,19.83
2018-05-07T07:43:30.764Z,20.22
2018-05-07T07:45:59.078Z,20.43
2018-05-07T07:48:27.374Z,20.17
2018-05-07T07:50:55.637Z,20.16
2018-05-07T07:53:23.987Z,20.30
2018-05-07T07:55:52.210Z,20.13
2018-05-07T07:58:20.505Z,20.32
2018-05-07T08:00:48.788Z,20.57
2018-05-07T08:03:17.061Z,20.93
2018-05-07T08:05:45.336Z,20.99
2018-05-07T08:08:14.394Z,21.24
2018-05-07T08:10:42.728Z,21.30
2018-05-07T08:13:11.785Z,21.29
2018-05-07T08:15:40.122Z,21.04
2018-05-07T08:18:08.434Z,21.31
2018-05-07T08:20:36.720Z,21.30
2018-05-07T08:23:05.041Z,21.26
2018-05-07T08:25:33.386Z,21.08
2018-05-07T08:28:01.655Z,21.52
2018-05-07T08:30:30.035Z,21.48
2018-05-07T08:32:59.002Z,21.80
2018-05-07T08:35:27.377Z,21.95
2018-05-07T08:37:55.709Z,22.09
2018-05-07T08:40:24.809Z,21.43
2018-05-07T08:42:53.097Z,21.41
2018-05-07T08:45:21.412Z,21.90
2018-05-07T08:47:49.669Z,21.49
2018-05-07T08:50:17.943Z,21.67
2018-05-07T08:52:46.244Z,22.00
2018-05-07T08:55:14.506Z,22.07
2018-05-07T08:57:42.798Z,22.37
2018-05-07T09:00:11.870Z,22.48
2018-05-07T09:02:40.149Z,22.44
2018-05-07T09:05:08.564Z,22.43
2018-05-07T09:07:36.833Z,22.59
2018-05-07T09:10:06.037Z,22.98
2018-05-07T09:12:34.334Z,23.26
2018-05-07T09:15:02.612Z,23.63
2018-05-07T09:17:30.948Z,23.64
2018-05-07T09:19:59.241Z,23.74
2018-05-07T09:22:28.280Z,23.91
2018-05-07T09:24:56.590Z,23.67
2018-05-07T09:27:24.850Z,23.91
2018-05-07T09:29:53.129Z,23.35
2018-05-07T09:32:21.483Z,23.66
2018-05-07T09:34:49.768Z,23.62
2018-05-07T09:37:18.034Z,23.74
2018-05-07T09:39:46.323Z,24.09
2018-05-07T09:42:14.726Z,24.01
2018-05-07T09:44:42.979Z,24.09
2018-05-07T09:47:11.750Z,24.48
2018-05-07T09:49:40.009Z,24.83
2018-05-07T09:52:08.300Z,24.14
2018-05-07T09:54:36.636Z,23.48
2018-05-07T09:57:05.078Z,23.46
2018-05-07T09:59:33.305Z,23.87
2018-05-07T10:02:01.580Z,24.46
2018-05-07T10:04:29.876Z,24.91
2018-05-07T10:06:58.183Z,25.04
2018-05-07T10:09:26.446Z,23.74
2018-05-07T10:11:54.742Z,23.44
2018-05-07T10:14:23.046Z,24.02
2018-05-07T10:16:52.083Z,23.99
2018-05-07T10:19:20.382Z,24.37
2018-05-07T10:21:48.704Z,24.38
2018-05-07T10:24:17.130Z,24.57
2018-05-07T10:26:45.549Z,24.61
2018-05-07T10:29:14.096Z,25.14
2018-05-07T10:31:42.449Z,24.77
2018-05-07T10:34:10.705Z,24.91
2018-05-07T10:36:39.010Z,24.86
2018-05-07T10:39:07.280Z,24.92
2018-05-07T10:41:35.560Z,24.93
2018-05-07T10:44:03.828Z,25.25
2018-05-07T10:46:32.145Z,25.27
2018-05-07T10:49:00.439Z,25.20
2018-05-07T10:51:29.476Z,25.33
2018-05-07T10:53:57.764Z,24.90
2018-05-07T10:56:26.043Z,24.95
2018-05-07T10:58:54.324Z,25.01
2018-05-07T11:01:22.667Z,24.88
2018-05-07T11:03:50.948Z,24.61
2018-05-07T11:08:53.838Z,24.24
2018-05-07T11:11:22.150Z,24.38
2018-05-07T11:13:50.426Z,24.45
2018-05-07T11:16:19.036Z,23.75
2018-05-07T11:18:48.182Z,24.31
2018-05-07T11:21:16.464Z,24.78
2018-05-07T11:23:44.910Z,25.05
2018-05-07T11:26:13.176Z,25.85
2018-05-07T11:28:41.486Z,26.30
2018-05-07T11:31:09.874Z,25.79
2018-05-07T11:33:38.168Z,25.26
2018-05-07T11:36:06.438Z,25.36
2018-05-07T11:38:34.714Z,25.81
2018-05-07T11:41:02.993Z,25.73
2018-05-07T11:43:31.288Z,25.98
2018-05-07T11:46:00.391Z,26.50
2018-05-07T11:48:29.459Z,26.17
2018-05-07T11:50:57.727Z,26.04
2018-05-07T11:53:26.021Z,26.09
2018-05-07T11:55:54.293Z,26.31
2018-05-07T11:58:22.567Z,26.14
2018-05-07T12:00:50.853Z,26.50
2018-05-07T12:03:19.974Z,26.09
2018-05-07T12:05:48.372Z,25.93
2018-05-07T12:08:16.677Z,26.48
2018-05-07T12:10:44.956Z,26.92
2018-05-07T12:13:13.228Z,26.42
2018-05-07T12:15:41.605Z,25.96
2018-05-07T12:18:10.591Z,26.09
2018-05-07T12:20:38.859Z,26.40
2018-05-07T12:23:07.148Z,26.16
2018-05-07T12:25:35.407Z,26.04
2018-05-07T12:28:03.690Z,25.81
2018-05-07T12:30:31.948Z,26.51
2018-05-07T12:33:00.283Z,26.27
2018-05-07T12:35:29.346Z,27.05
2018-05-07T12:37:57.626Z,26.95
2018-05-07T12:40:26.302Z,27.20
2018-05-07T12:42:55.360Z,27.47
2018-05-07T12:45:23.927Z,27.19
2018-05-07T12:47:52.261Z,27.43
2018-05-07T12:50:20.509Z,27.20
2018-05-07T12:52:48.891Z,26.78
2018-05-07T12:55:17.174Z,26.93
2018-05-07T12:57:45.474Z,27.01
2018-05-07T13:00:14.522Z,26.41
2018-05-07T13:02:42.847Z,26.84
2018-05-07T13:05:11.892Z,26.98
2018-05-07T13:07:40.183Z,27.45
2018-05-07T13:10:08.471Z,27.78
2018-05-07T13:12:36.750Z,27.45
2018-05-07T13:15:05.096Z,27.52
2018-05-07T13:17:33.375Z,26.96
2018-05-07T13:20:01.645Z,27.25
2018-05-07T13:22:29.950Z,26.99
2018-05-07T13:24:58.253Z,27.18
2018-05-07T13:27:27.378Z,26.47
2018-05-07T13:29:55.645Z,26.47
2018-05-07T13:32:23.936Z,26.38
2018-05-07T13:34:52.221Z,26.33
2018-05-07T13:37:20.516Z,26.58
2018-05-07T13:39:48.775Z,26.24
2018-05-07T13:42:17.046Z,26.12
2018-05-07T13:44:45.373Z,26.34
2018-05-07T13:47:14.433Z,26.79
2018-05-07T13:49:42.740Z,27.14
2018-05-07T13:52:11.765Z,27.28
2018-05-07T13:54:40.040Z,26.74
2018-05-07T13:57:08.422Z,27.01
2018-05-07T13:59:36.743Z,26.93
2018-05-07T14:02:05.005Z,27.07
2018-05-07T14:04:33.560Z,26.90
2018-05-07T14:07:01.839Z,27.25
2018-05-07T14:09:30.147Z,27.10
2018-05-07T14:11:58.429Z,27.43
2018-05-07T14:14:26.847Z,27.25
2018-05-07T14:16:55.865Z,26.89
2018-05-07T14:19:24.191Z,27.09
2018-05-07T14:21:53.236Z,26.97
2018-05-07T14:24:21.525Z,27.51
2018-05-07T14:26:49.920Z,27.07
2018-05-07T14:29:18.205Z,26.90
2018-05-07T14:31:46.573Z,27.41
2018-05-07T14:34:14.860Z,26.86
2018-05-07T14:36:43.914Z,27.30
2018-05-07T14:39:12.179Z,27.77
2018-05-07T14:41:40.502Z,27.26
2018-05-07T14:44:09.088Z,27.25
2018-05-07T14:46:38.157Z,27.29
2018-05-07T14:49:06.402Z,26.78
2018-05-07T14:51:34.796Z,27.09
2018-05-07T14:54:03.098Z,26.83
2018-05-07T14:56:31.386Z,26.33
2018-05-07T14:59:00.429Z,26.89
2018-05-07T15:01:28.705Z,27.05
2018-05-07T15:03:57.079Z,27.48
2018-05-07T15:06:25.421Z,27.52
2018-05-07T15:08:54.452Z,26.82
2018-05-07T15:11:22.716Z,26.93
2018-05-07T15:13:51.016Z,27.14
2018-05-07T15:16:19.339Z,27.16
2018-05-07T15:18:48.378Z,27.85
2018-05-07T15:21:16.651Z,27.51
2018-05-07T15:23:44.917Z,27.94
2018-05-07T15:26:13.187Z,27.71
2018-05-07T15:28:41.622Z,27.16
2018-05-07T15:31:09.912Z,27.10
2018-05-07T15:33:39.241Z,27.30
2018-05-07T15:36:07.524Z,27.59
2018-05-07T15:38:35.894Z,28.08
2018-05-07T15:41:04.195Z,28.25
2018-05-07T15:43:32.435Z,27.50
2018-05-07T15:46:00.761Z,26.70
2018-05-07T15:48:29.173Z,26.70
2018-05-07T15:50:57.431Z,27.15
2018-05-07T15:53:26.466Z,27.92
2018-05-07T15:55:54.869Z,27.55
2018-05-07T16:07:30.266Z,25.27
2018-05-07T16:41:36.558Z,26.54
2018-05-07T16:44:03.029Z,26.87
2018-05-07T16:46:29.413Z,28.19
2018-05-07T16:48:56.033Z,28.21
2018-05-07T16:51:22.648Z,28.12
2018-05-07T16:53:49.152Z,27.81
2018-05-07T16:56:16.311Z,27.69
2018-05-07T16:58:43.052Z,27.55
2018-05-07T17:01:09.429Z,27.18
2018-05-07T17:03:36.504Z,27.02
2018-05-07T17:06:03.079Z,27.07
2018-05-07T17:08:29.915Z,26.86
2018-05-07T17:10:56.585Z,26.57
2018-05-07T17:13:23.353Z,26.27
2018-05-07T17:15:49.919Z,26.42
2018-05-07T17:18:16.328Z,26.33
2018-05-07T17:20:43.662Z,26.26
2018-05-07T17:23:10.221Z,26.17
2018-05-07T17:25:36.637Z,26.22
2018-05-07T17:28:03.082Z,25.95
2018-05-07T17:30:30.206Z,26.13
2018-05-07T17:32:56.664Z,26.20
2018-05-07T17:35:23.026Z,26.22
2018-05-07T17:37:49.499Z,26.07
2018-05-07T17:40:15.854Z,25.90
2018-05-07T17:42:43.032Z,25.89
2018-05-07T17:45:28.023Z,25.80
2018-05-07T17:48:13.012Z,25.75
2018-05-07T17:50:39.281Z,25.45
2018-05-07T17:53:05.617Z,25.32
2018-05-07T17:55:32.061Z,25.33
2018-05-07T17:57:58.368Z,25.15
2018-05-07T18:00:24.740Z,24.88
2018-05-07T18:02:51.284Z,24.98
2018-05-07T18:05:17.659Z,24.88
2018-05-07T18:07:44.832Z,24.75
2018-05-07T18:10:11.325Z,25.10
2018-05-07T18:12:38.514Z,24.80
2018-05-07T18:15:04.902Z,24.61
2018-05-07T18:17:31.990Z,24.81
2018-05-07T18:19:58.383Z,24.84
2018-05-07T18:22:25.541Z,24.84
2018-05-07T18:24:52.976Z,24.49
2018-05-07T18:27:19.861Z,24.33
2018-05-07T18:29:46.415Z,24.40
2018-05-07T18:32:13.032Z,24.52
2018-05-07T18:34:39.615Z,24.24
2018-05-07T18:37:06.143Z,24.36
2018-05-07T18:39:32.637Z,24.31
2018-05-07T18:41:59.280Z,24.00
2018-05-07T18:44:26.727Z,23.88
2018-05-07T18:46:53.558Z,23.85
2018-05-07T18:49:20.245Z,23.76
2018-05-07T18:51:46.828Z,23.35
2018-05-07T18:54:14.417Z,22.97
2018-05-07T18:56:41.260Z,22.90
2018-05-07T18:59:07.867Z,22.71
2018-05-07T19:01:34.590Z,22.67
2018-05-07T19:04:01.402Z,22.76
2018-05-07T19:06:28.173Z,22.65
2018-05-07T19:08:54.890Z,22.73
2018-05-07T19:11:21.698Z,22.62
2018-05-07T19:13:48.436Z,22.40
2018-05-07T19:16:15.088Z,22.22
2018-05-07T19:18:42.742Z,21.92
2018-05-07T19:21:10.368Z,21.99
2018-05-07T19:23:37.048Z,21.74
2018-05-07T19:26:03.665Z,21.70
2018-05-07T19:28:30.390Z,21.85
2018-05-07T19:31:08.336Z,21.92
2018-05-07T19:33:34.918Z,21.93
2018-05-07T19:36:01.888Z,21.92
2018-05-07T19:38:28.650Z,21.97
2018-05-07T19:40:55.392Z,21.84
2018-05-07T19:43:22.214Z,21.73
2018-05-07T19:45:48.879Z,21.60
2018-05-07T19:48:15.434Z,21.62
2018-05-07T19:50:42.091Z,21.81
2018-05-07T19:53:08.502Z,21.87
2018-05-07T19:55:35.136Z,22.00
2018-05-07T19:58:01.744Z,22.07
2018-05-07T20:00:28.447Z,22.35
2018-05-07T20:02:55.856Z,22.58
2018-05-07T20:05:22.208Z,22.19
2018-05-07T20:07:48.972Z,22.02
2018-05-07T20:10:15.335Z,21.77
2018-05-07T20:12:41.806Z,21.50
2018-05-07T20:15:08.990Z,21.39
2018-05-07T20:17:35.373Z,21.61
2018-05-07T20:20:01.807Z,21.31
2018-05-07T20:22:28.830Z,21.32
2018-05-07T20:24:55.210Z,21.59
2018-05-07T20:27:21.663Z,21.58
2018-05-07T20:29:48.030Z,21.30
2018-05-07T20:32:14.443Z,21.60
2018-05-07T20:34:40.810Z,21.24
2018-05-07T20:37:07.930Z,21.39
2018-05-07T20:39:34.412Z,20.99
2018-05-07T20:42:01.053Z,20.91
2018-05-07T20:44:27.396Z,20.66
2018-05-07T20:46:53.781Z,20.21
2018-05-07T20:49:20.130Z,20.40
2018-05-07T20:51:47.219Z,20.25
2018-05-07T20:54:13.589Z,20.07
2018-05-07T20:56:39.942Z,19.93
2018-05-07T20:59:06.313Z,20.01
2018-05-07T21:01:32.756Z,19.79
2018-05-07T21:03:59.073Z,19.76
2018-05-07T21:06:25.447Z,19.72
2018-05-07T21:08:52.545Z,19.58
2018-05-07T21:11:18.982Z,19.34
2018-05-07T21:13:45.341Z,19.34
2018-05-07T21:16:11.755Z,19.33
2018-05-07T21:18:38.061Z,19.41
2018-05-07T21:21:04.798Z,19.46
2018-05-07T21:23:31.306Z,19.55
2018-05-07T21:25:58.444Z,19.61
2018-05-07T21:28:24.870Z,19.42
2018-05-07T21:30:51.306Z,19.61
2018-05-07T21:33:17.678Z,19.67
2018-05-07T21:35:44.059Z,19.88
2018-05-07T21:38:10.433Z,19.99
2018-05-07T21:40:37.230Z,20.37
2018-05-07T21:43:03.605Z,20.17
2018-05-07T21:45:30.037Z,20.10
2018-05-07T21:47:56.372Z,20.25
2018-05-07T21:50:22.712Z,20.50
2018-05-07T21:52:49.054Z,20.65
2018-05-07T21:55:15.469Z,20.93
2018-05-07T21:57:41.841Z,21.77
2018-05-07T22:00:08.651Z,21.78
2018-05-07T22:02:35.015Z,21.79
2018-05-07T22:05:01.355Z,21.55
2018-05-07T22:07:27.729Z,21.38
2018-05-07T22:09:54.083Z,21.41
2018-05-07T22:12:21.285Z,21.33
2018-05-07T22:14:47.543Z,21.21
2018-05-07T22:17:13.937Z,20.97
2018-05-07T22:19:41.026Z,21.42
2018-05-07T22:22:07.371Z,21.50
2018-05-07T22:24:33.685Z,21.83
2018-05-07T22:27:00.023Z,21.78
2018-05-07T22:29:26.367Z,21.54
2018-05-07T22:31:52.711Z,21.76
2018-05-07T22:34:19.092Z,21.83
2018-05-07T22:36:45.420Z,21.65
2018-05-07T22:39:29.171Z,21.45
2018-05-07T22:41:55.791Z,21.22
2018-05-07T22:44:22.345Z,21.17
2018-05-07T22:46:48.764Z,21.19
2018-05-07T22:49:15.274Z,21.18
2018-05-07T22:51:42.448Z,21.51
2018-05-07T22:54:08.830Z,21.25
2018-05-07T22:56:36.629Z,21.29
2018-05-07T22:59:03.152Z,21.63
2018-05-07T23:01:29.528Z,21.75
2018-05-07T23:03:55.985Z,21.42
2018-05-07T23:06:22.344Z,21.30
2018-05-07T23:08:48.820Z,21.39
2018-05-07T23:11:15.189Z,21.48
2018-05-07T23:13:42.329Z,21.38
2018-05-07T23:16:08.703Z,21.18
2018-05-07T23:18:35.135Z,21.41
2018-05-07T23:21:01.588Z,21.21
2018-05-07T23:23:28.073Z,21.30
2018-05-07T23:25:54.535Z,21.11
2018-05-07T23:28:20.826Z,21.22
2018-05-07T23:30:47.897Z,21.13
2018-05-07T23:33:14.752Z,21.17
2018-05-07T23:35:41.177Z,21.10
2018-05-07T23:38:07.533Z,21.07
2018-05-07T23:40:33.933Z,21.12
2018-05-07T23:43:00.253Z,21.06
2018-05-07T23:45:26.720Z,20.99
2018-05-07T23:47:53.282Z,21.00
2018-05-07T23:50:19.657Z,21.01
2018-05-07T23:52:46.002Z,21.08
2018-05-07T23:55:12.314Z,21.20
2018-05-07T23:57:38.715Z,21.08
